createdAt,value
2018-09-18T00:01:22.554Z,8.27
2018-09-18T00:03:51.098Z,7.60
2018-09-18T00:06:19.768Z,8.57
2018-09-18T00:08:48.504Z,8.63
2018-09-18T00:11:17.345Z,8.28
2018-09-18T00:13:46.523Z,8.17
2018-09-18T00:16:15.624Z,8.47
2018-09-18T00:18:44.937Z,7.47
2018-09-18T00:21:14.117Z,7.97
2018-09-18T00:23:43.256Z,8.60
2018-09-18T00:26:12.604Z,8.10
2018-09-18T00:28:42.570Z,7.60
2018-09-18T00:31:12.061Z,7.80
2018-09-18T00:33:40.983Z,8.00
2018-09-18T00:36:10.047Z,8.03
2018-09-18T00:38:39.533Z,7.27
2018-09-18T00:41:08.774Z,7.53
2018-09-18T00:43:38.251Z,8.18
2018-09-18T00:46:07.459Z,8.10
2018-09-18T00:48:36.516Z,7.60
2018-09-18T00:51:05.458Z,8.40
2018-09-18T00:53:34.657Z,8.20
2018-09-18T00:56:03.729Z,8.37
2018-09-18T00:58:32.324Z,8.23
2018-09-18T01:01:01.007Z,7.47
2018-09-18T01:03:31.092Z,7.80
2018-09-18T01:05:59.818Z,9.40
2018-09-18T01:08:28.409Z,8.23
2018-09-18T01:10:58.394Z,8.50
2018-09-18T01:13:27.307Z,8.27
2018-09-18T01:15:56.799Z,7.77
2018-09-18T01:18:30.457Z,7.33
2018-09-18T01:20:59.539Z,8.10
2018-09-18T01:23:28.419Z,8.47
2018-09-18T01:25:57.990Z,9.63
2018-09-18T01:28:27.417Z,8.60
2018-09-18T01:30:57.005Z,8.40
2018-09-18T01:33:26.864Z,9.30
2018-09-18T01:35:57.523Z,8.15
2018-09-18T01:38:28.037Z,8.00
2018-09-18T01:40:57.040Z,10.67
2018-09-18T01:43:26.231Z,10.03
2018-09-18T01:45:55.093Z,10.08
2018-09-18T01:48:23.907Z,10.50
2018-09-18T01:50:52.795Z,9.80
2018-09-18T01:53:22.041Z,10.47
2018-09-18T01:55:50.610Z,9.40
2018-09-18T01:58:19.162Z,8.80
2018-09-18T02:00:47.643Z,8.57
2018-09-18T02:03:16.169Z,7.80
2018-09-18T02:05:44.806Z,8.43
2018-09-18T02:08:14.464Z,8.03
2018-09-18T02:10:43.277Z,8.00
2018-09-18T02:13:11.832Z,8.30
2018-09-18T02:15:40.562Z,7.67
2018-09-18T02:18:09.329Z,7.53
2018-09-18T02:20:38.326Z,7.63
2018-09-18T02:23:07.199Z,6.47
2018-09-18T02:25:35.810Z,6.80
2018-09-18T02:28:04.711Z,7.10
2018-09-18T02:30:33.250Z,6.23
2018-09-18T02:33:01.876Z,7.03
2018-09-18T02:35:30.868Z,7.10
2018-09-18T02:37:59.543Z,6.57
2018-09-18T02:40:28.298Z,6.50
2018-09-18T02:42:56.938Z,6.60
2018-09-18T02:45:25.847Z,6.87
2018-09-18T02:47:54.601Z,7.10
2018-09-18T02:50:23.168Z,6.87
2018-09-18T02:52:51.892Z,6.73
2018-09-18T02:55:20.444Z,6.57
2018-09-18T02:57:49.218Z,6.83
2018-09-18T03:00:18.046Z,6.70
2018-09-18T03:02:46.815Z,7.33
2018-09-18T03:05:16.177Z,6.57
2018-09-18T03:07:45.203Z,7.50
2018-09-18T03:10:13.923Z,7.20
2018-09-18T03:12:42.742Z,6.70
2018-09-18T03:15:11.686Z,6.80
2018-09-18T03:17:40.421Z,7.27
2018-09-18T03:20:09.139Z,7.00
2018-09-18T03:22:38.426Z,7.40
2018-09-18T03:25:06.995Z,6.60
2018-09-18T03:27:35.506Z,7.50
2018-09-18T03:30:04.425Z,6.83
2018-09-18T03:32:33.124Z,7.30
2018-09-18T03:35:02.124Z,7.35
2018-09-18T03:37:30.955Z,7.20
2018-09-18T03:39:59.794Z,8.00
2018-09-18T03:42:28.448Z,7.03
2018-09-18T03:44:57.159Z,7.65
2018-09-18T03:47:25.629Z,7.10
2018-09-18T03:49:54.659Z,7.23
2018-09-18T03:52:24.324Z,7.87
2018-09-18T03:54:54.146Z,7.22
2018-09-18T03:57:22.715Z,7.23
2018-09-18T03:59:51.377Z,8.37
2018-09-18T04:02:19.988Z,7.40
2018-09-18T04:04:48.775Z,7.73
2018-09-18T04:07:17.463Z,8.15
2018-09-18T04:09:46.249Z,8.67
2018-09-18T04:12:15.111Z,8.07
2018-09-18T04:14:43.873Z,7.40
2018-09-18T04:17:12.722Z,8.20
2018-09-18T04:19:41.311Z,8.03
2018-09-18T04:22:10.215Z,7.50
2018-09-18T04:24:39.385Z,7.60
2018-09-18T04:27:10.021Z,8.03
2018-09-18T04:29:38.757Z,7.70
2018-09-18T04:32:07.628Z,7.70
2018-09-18T04:34:36.562Z,8.20
2018-09-18T04:37:05.311Z,7.57
2018-09-18T04:39:34.345Z,7.83
2018-09-18T04:42:03.367Z,8.10
2018-09-18T04:44:32.360Z,7.93
2018-09-18T04:47:01.040Z,7.80
2018-09-18T04:49:29.643Z,8.40
2018-09-18T04:51:58.474Z,7.30
2018-09-18T04:54:29.972Z,8.10
2018-09-18T04:56:58.883Z,8.80
2018-09-18T04:59:28.045Z,7.87
2018-09-18T05:01:56.950Z,8.20
2018-09-18T05:04:25.962Z,8.40
2018-09-18T05:06:54.844Z,8.00
2018-09-18T05:09:23.744Z,8.83
2018-09-18T05:11:52.386Z,9.00
2018-09-18T05:14:21.116Z,9.47
2018-09-18T05:16:50.226Z,8.50
2018-09-18T05:19:19.157Z,8.83
2018-09-18T05:21:47.876Z,11.28
2018-09-18T05:24:16.836Z,11.17
2018-09-18T05:26:46.214Z,10.93
2018-09-18T05:29:15.114Z,10.07
2018-09-18T05:31:43.965Z,10.77
2018-09-18T05:34:13.765Z,9.30
2018-09-18T05:36:42.713Z,9.40
2018-09-18T05:39:12.431Z,9.00
2018-09-18T05:41:41.379Z,10.90
2018-09-18T05:44:10.306Z,10.97
2018-09-18T05:46:39.008Z,9.90
2018-09-18T05:49:07.584Z,12.40
2018-09-18T05:51:36.200Z,11.40
2018-09-18T05:54:05.064Z,10.30
2018-09-18T05:56:44.364Z,10.60
2018-09-18T05:59:13.186Z,12.03
2018-09-18T06:01:42.159Z,9.87
2018-09-18T06:04:11.227Z,10.32
2018-09-18T06:06:40.288Z,10.60
2018-09-18T06:09:10.556Z,10.33
2018-09-18T06:11:39.424Z,11.10
2018-09-18T06:17:05.831Z,11.27
2018-09-18T06:19:34.618Z,11.73
2018-09-18T06:22:04.223Z,12.57
2018-09-18T06:24:33.085Z,14.43
2018-09-18T06:27:01.954Z,11.73
2018-09-18T06:29:30.761Z,12.50
2018-09-18T06:31:59.358Z,12.50
2018-09-18T06:34:28.000Z,13.97
2018-09-18T06:36:57.233Z,13.50
2018-09-18T06:39:26.358Z,12.20
2018-09-18T06:41:55.251Z,13.30
2018-09-18T06:44:23.880Z,13.40
2018-09-18T06:46:52.767Z,13.83
2018-09-18T06:49:21.345Z,13.57
2018-09-18T06:51:49.922Z,12.70
2018-09-18T06:54:18.524Z,12.47
2018-09-18T06:56:47.070Z,13.47
2018-09-18T06:59:15.921Z,12.00
2018-09-18T07:01:44.845Z,12.07
2018-09-18T07:04:13.701Z,12.10
2018-09-18T07:06:43.175Z,11.25
2018-09-18T07:09:12.657Z,11.77
2018-09-18T07:11:41.405Z,10.33
2018-09-18T07:14:10.746Z,10.70
2018-09-18T07:16:40.315Z,11.20
2018-09-18T07:19:09.903Z,11.60
2018-09-18T07:21:38.778Z,10.70
2018-09-18T07:24:07.903Z,9.77
2018-09-18T07:26:37.410Z,10.15
2018-09-18T07:29:06.180Z,10.40
2018-09-18T07:31:35.109Z,11.37
2018-09-18T07:34:04.203Z,10.63
2018-09-18T07:36:32.843Z,9.93
2018-09-18T07:39:01.488Z,10.87
2018-09-18T07:41:30.105Z,10.53
2018-09-18T07:43:58.906Z,11.13
2018-09-18T07:46:27.712Z,10.40
2018-09-18T07:49:03.356Z,10.57
2018-09-18T07:51:32.768Z,10.20
2018-09-18T07:54:02.252Z,10.83
2018-09-18T07:56:31.483Z,10.27
2018-09-18T07:59:01.137Z,9.75
2018-09-18T08:01:30.822Z,10.80
2018-09-18T08:03:59.448Z,10.20
2018-09-18T08:06:28.170Z,11.53
2018-09-18T08:08:57.550Z,10.00
2018-09-18T08:11:26.534Z,9.60
2018-09-18T08:13:55.619Z,9.97
2018-09-18T08:16:24.742Z,9.10
2018-09-18T08:18:53.464Z,10.37
2018-09-18T08:21:22.634Z,9.90
2018-09-18T08:23:51.608Z,10.97
2018-09-18T08:26:20.598Z,11.07
2018-09-18T08:28:49.697Z,9.90
2018-09-18T08:31:18.688Z,10.75
2018-09-18T08:33:47.607Z,9.87
2018-09-18T08:36:16.227Z,10.97
2018-09-18T08:38:44.912Z,9.83
2018-09-18T08:41:13.774Z,9.90
2018-09-18T08:43:42.530Z,10.27
2018-09-18T08:46:11.451Z,10.40
2018-09-18T08:48:44.273Z,11.50
2018-09-18T08:51:13.220Z,9.33
2018-09-18T08:53:41.929Z,10.83
2018-09-18T08:56:10.725Z,10.53
2018-09-18T08:58:39.568Z,10.50
2018-09-18T09:01:08.198Z,11.60
2018-09-18T09:03:36.933Z,10.82
2018-09-18T09:06:05.999Z,10.67
2018-09-18T09:08:35.267Z,11.60
2018-09-18T09:11:04.030Z,9.73
2018-09-18T09:13:32.824Z,10.78
2018-09-18T09:16:02.027Z,9.97
2018-09-18T09:18:30.941Z,9.93
2018-09-18T09:21:00.078Z,10.60
2018-09-18T09:23:28.732Z,10.13
2018-09-18T09:25:57.527Z,9.93
2018-09-18T09:28:26.694Z,9.97
2018-09-18T09:30:55.737Z,10.10
2018-09-18T09:33:24.612Z,10.20
2018-09-18T09:35:53.316Z,10.60
2018-09-18T09:38:22.435Z,9.50
2018-09-18T09:40:51.324Z,9.67
2018-09-18T09:43:20.373Z,9.10
2018-09-18T09:45:49.437Z,9.35
2018-09-18T09:48:18.212Z,8.97
2018-09-18T09:50:47.712Z,8.87
2018-09-18T09:53:16.672Z,8.23
2018-09-18T09:55:46.362Z,9.53
2018-09-18T09:58:15.842Z,9.13
2018-09-18T10:00:49.960Z,8.78
2018-09-18T10:03:19.044Z,9.43
2018-09-18T10:05:48.225Z,8.80
2018-09-18T10:08:17.440Z,8.90
2018-09-18T10:10:46.903Z,9.90
2018-09-18T10:13:15.938Z,10.17
2018-09-18T10:15:45.196Z,9.80
2018-09-18T10:18:14.181Z,8.83
2018-09-18T10:20:46.216Z,8.90
2018-09-18T10:23:15.068Z,9.70
2018-09-18T10:25:43.851Z,9.30
2018-09-18T10:28:12.833Z,8.83
2018-09-18T10:30:42.087Z,8.77
2018-09-18T10:33:11.677Z,9.40
2018-09-18T10:35:40.297Z,10.20
2018-09-18T10:38:09.501Z,8.63
2018-09-18T10:40:38.379Z,10.30
2018-09-18T10:43:07.657Z,9.33
2018-09-18T10:45:36.735Z,10.47
2018-09-18T10:48:05.743Z,9.13
2018-09-18T10:50:34.522Z,9.43
2018-09-18T10:53:03.598Z,9.40
2018-09-18T10:55:33.460Z,9.53
2018-09-18T10:58:02.106Z,9.58
2018-09-18T11:00:30.915Z,9.23
2018-09-18T11:02:59.649Z,10.33
2018-09-18T11:05:28.470Z,10.40
2018-09-18T11:07:57.932Z,9.47
2018-09-18T11:10:26.944Z,9.27
2018-09-18T11:12:55.750Z,9.10
2018-09-18T11:15:24.763Z,10.47
2018-09-18T11:17:53.362Z,10.27
2018-09-18T11:20:22.424Z,9.13
2018-09-18T11:22:51.331Z,10.73
2018-09-18T11:25:20.045Z,8.57
2018-09-18T11:27:48.871Z,9.07
2018-09-18T11:30:17.676Z,10.10
2018-09-18T11:32:46.983Z,8.85
2018-09-18T11:35:16.417Z,8.50
2018-09-18T11:37:45.270Z,9.53
2018-09-18T11:40:14.105Z,9.00
2018-09-18T11:42:42.752Z,8.90
2018-09-18T11:45:11.559Z,9.03
2018-09-18T11:47:40.419Z,9.20
2018-09-18T11:50:09.644Z,9.70
2018-09-18T11:52:38.547Z,9.37
2018-09-18T11:55:07.745Z,8.40
2018-09-18T11:57:36.753Z,8.10
2018-09-18T12:00:05.713Z,8.30
2018-09-18T12:02:34.620Z,8.40
2018-09-18T12:05:03.417Z,8.93
2018-09-18T12:07:32.409Z,8.10
2018-09-18T12:10:01.550Z,7.90
2018-09-18T12:12:30.485Z,8.43
2018-09-18T12:15:00.137Z,7.13
2018-09-18T12:17:29.113Z,8.23
2018-09-18T12:19:58.102Z,8.43
2018-09-18T12:22:27.051Z,7.97
2018-09-18T12:24:56.139Z,7.47
2018-09-18T12:27:25.227Z,7.07
2018-09-18T12:29:53.907Z,7.90
2018-09-18T12:32:22.476Z,7.77
2018-09-18T12:34:51.090Z,7.43
2018-09-18T12:37:19.941Z,7.43
2018-09-18T12:39:52.667Z,7.83
2018-09-18T12:42:21.544Z,7.27
2018-09-18T12:44:50.077Z,7.60
2018-09-18T12:47:18.856Z,6.95
2018-09-18T12:49:47.840Z,7.00
2018-09-18T12:52:16.295Z,7.20
2018-09-18T12:54:45.157Z,7.67
2018-09-18T12:57:14.409Z,7.40
2018-09-18T12:59:43.134Z,6.73
2018-09-18T13:02:12.525Z,5.70
2018-09-18T13:04:42.606Z,5.90
2018-09-18T13:07:11.820Z,6.90
2018-09-18T13:09:41.668Z,6.37
2018-09-18T13:12:11.230Z,7.60
2018-09-18T13:14:40.355Z,5.77
2018-09-18T13:17:09.591Z,6.53
2018-09-18T13:19:38.492Z,4.97
2018-09-18T13:22:07.651Z,6.00
2018-09-18T13:24:36.462Z,6.23
2018-09-18T13:27:05.582Z,5.67
2018-09-18T13:29:34.683Z,4.53
2018-09-18T13:32:03.924Z,5.28
2018-09-18T13:34:32.861Z,5.60
2018-09-18T13:37:05.998Z,5.27
2018-09-18T13:39:37.422Z,6.27
2018-09-18T13:42:06.645Z,5.20
2018-09-18T13:44:35.906Z,6.17
2018-09-18T13:47:05.578Z,6.80
2018-09-18T13:49:34.706Z,7.47
2018-09-18T13:52:04.146Z,6.30
2018-09-18T13:57:07.070Z,7.50
2018-09-18T13:59:36.335Z,8.20
2018-09-18T14:02:06.679Z,7.77
2018-09-18T14:04:38.722Z,7.80
2018-09-18T14:07:08.042Z,7.63
2018-09-18T14:09:37.949Z,8.40
2018-09-18T14:12:09.014Z,8.03
2018-09-18T14:14:57.475Z,7.83
2018-09-18T14:21:23.852Z,7.73
2018-09-18T14:30:16.828Z,9.10
2018-09-18T14:32:46.496Z,8.20
2018-09-18T14:35:20.278Z,8.00
2018-09-18T14:37:50.522Z,8.40
2018-09-18T14:40:20.031Z,8.33
2018-09-18T14:42:52.788Z,6.87
2018-09-18T14:45:22.268Z,8.63
2018-09-18T14:47:53.404Z,9.30
2018-09-18T14:50:22.863Z,8.20
2018-09-18T14:52:52.327Z,7.87
2018-09-18T14:55:22.139Z,7.77
2018-09-18T14:57:51.581Z,8.30
2018-09-18T15:00:20.822Z,7.55
2018-09-18T15:02:50.378Z,7.90
2018-09-18T15:05:20.199Z,8.33
2018-09-18T15:07:49.147Z,7.80
2018-09-18T15:10:18.364Z,8.33
2018-09-18T15:12:47.515Z,7.50
2018-09-18T15:15:16.386Z,7.03
2018-09-18T15:17:45.252Z,7.07
2018-09-18T15:20:13.958Z,7.37
2018-09-18T15:22:42.674Z,7.50
2018-09-18T15:25:11.453Z,8.00
2018-09-18T15:27:41.104Z,4.90
2018-09-18T15:30:10.716Z,6.03
2018-09-18T15:32:40.128Z,4.20
2018-09-18T15:35:13.661Z,5.63
2018-09-18T15:37:43.650Z,7.10
2018-09-18T15:40:13.749Z,8.50
2018-09-18T15:42:43.385Z,6.57
2018-09-18T15:45:36.581Z,6.97
2018-09-18T15:48:52.607Z,8.07
2018-09-18T15:51:39.668Z,7.13
2018-09-18T15:54:11.679Z,6.97
2018-09-18T15:56:41.256Z,5.77
2018-09-18T15:59:12.236Z,5.40
2018-09-18T16:01:43.918Z,5.73
2018-09-18T16:04:13.745Z,5.57
2018-09-18T16:06:43.747Z,5.45
2018-09-18T16:09:21.207Z,3.83
2018-09-18T16:11:50.563Z,4.03
2018-09-18T16:14:19.891Z,3.90
2018-09-18T16:16:48.816Z,4.13
2018-09-18T16:19:17.556Z,3.27
2018-09-18T16:21:46.419Z,3.00
2018-09-18T16:24:15.789Z,4.33
2018-09-18T16:26:44.521Z,4.10
2018-09-18T16:29:13.302Z,4.20
2018-09-18T16:31:42.725Z,3.97
2018-09-18T16:34:12.593Z,4.53
2018-09-18T16:36:41.879Z,5.07
2018-09-18T16:39:11.047Z,3.70
2018-09-18T16:41:40.168Z,5.27
2018-09-18T16:44:09.798Z,4.80
2018-09-18T16:46:39.122Z,7.33
2018-09-18T16:49:09.279Z,3.63
2018-09-18T16:51:53.255Z,3.70
2018-09-18T16:54:36.484Z,3.30
2018-09-18T16:57:26.302Z,3.17
2018-09-18T17:00:21.877Z,3.80
2018-09-18T17:09:07.631Z,3.23
2018-09-18T17:11:37.251Z,3.30
2018-09-18T17:14:06.072Z,4.10
2018-09-18T17:16:35.258Z,3.53
2018-09-18T17:19:04.231Z,4.37
2018-09-18T17:21:32.976Z,3.97
2018-09-18T17:24:01.765Z,4.83
2018-09-18T17:26:30.244Z,5.50
2018-09-18T17:28:59.265Z,6.80
2018-09-18T17:31:27.973Z,5.70
2018-09-18T17:33:57.159Z,5.60
2018-09-18T17:36:26.160Z,5.90
2018-09-18T17:38:56.033Z,6.07
2018-09-18T17:41:25.172Z,4.70
2018-09-18T17:43:54.858Z,4.40
2018-09-18T17:46:23.573Z,5.03
2018-09-18T17:48:52.147Z,6.00
2018-09-18T17:51:21.199Z,4.80
2018-09-18T17:53:50.658Z,4.33
2018-09-18T17:56:19.365Z,4.20
2018-09-18T17:58:48.038Z,2.90
2018-09-18T18:01:16.688Z,3.23
2018-09-18T18:03:45.991Z,3.17
2018-09-18T18:06:14.831Z,2.80
2018-09-18T18:08:43.509Z,2.17
2018-09-18T18:11:12.278Z,2.50
2018-09-18T18:13:41.025Z,2.30
2018-09-18T18:16:09.881Z,2.37
2018-09-18T18:18:38.448Z,2.47
2018-09-18T18:21:07.317Z,2.60
2018-09-18T18:23:36.322Z,2.50
2018-09-18T18:26:05.240Z,2.30
2018-09-18T18:28:34.103Z,2.57
2018-09-18T18:31:02.783Z,2.73
2018-09-18T18:33:31.514Z,3.30
2018-09-18T18:36:00.262Z,2.97
2018-09-18T18:38:28.891Z,3.33
2018-09-18T18:40:57.486Z,5.20
2018-09-18T18:43:26.211Z,3.03
2018-09-18T18:45:54.882Z,3.63
2018-09-18T18:48:23.645Z,3.20
2018-09-18T18:50:52.147Z,3.10
2018-09-18T18:53:20.952Z,2.93
2018-09-18T18:55:49.546Z,3.20
2018-09-18T18:58:18.440Z,3.80
2018-09-18T19:00:47.195Z,3.15
2018-09-18T19:03:15.910Z,3.40
2018-09-18T19:05:44.724Z,3.37
2018-09-18T19:08:13.620Z,3.23
2018-09-18T19:10:42.581Z,3.60
2018-09-18T19:13:11.279Z,3.00
2018-09-18T19:15:39.916Z,3.47
2018-09-18T19:18:08.660Z,3.43
2018-09-18T19:20:37.395Z,4.10
2018-09-18T19:23:06.437Z,4.17
2018-09-18T19:25:34.913Z,3.93
2018-09-18T19:28:03.459Z,3.70
2018-09-18T19:30:31.877Z,3.50
2018-09-18T19:33:00.915Z,4.70
2018-09-18T19:35:29.749Z,4.07
2018-09-18T19:37:58.496Z,4.13
2018-09-18T19:40:27.242Z,3.83
2018-09-18T19:42:56.111Z,3.90
2018-09-18T19:45:24.704Z,3.20
2018-09-18T19:47:53.513Z,3.90
2018-09-18T19:50:22.377Z,3.90
2018-09-18T19:52:51.215Z,3.90
2018-09-18T19:55:20.247Z,3.80
2018-09-18T19:57:49.190Z,4.07
2018-09-18T20:00:18.085Z,3.80
2018-09-18T20:02:46.550Z,4.58
2018-09-18T20:05:15.225Z,3.87
2018-09-18T20:07:44.007Z,4.67
2018-09-18T20:10:13.129Z,3.90
2018-09-18T20:12:43.159Z,4.20
2018-09-18T20:15:11.929Z,4.00
2018-09-18T20:17:40.687Z,4.33
2018-09-18T20:20:09.380Z,4.00
2018-09-18T20:22:38.378Z,3.90
2018-09-18T20:25:06.981Z,4.53
2018-09-18T20:27:35.397Z,3.90
2018-09-18T20:30:04.228Z,3.90
2018-09-18T20:32:33.001Z,4.67
2018-09-18T20:35:01.900Z,4.42
2018-09-18T20:37:30.470Z,4.57
2018-09-18T20:39:59.074Z,5.70
2018-09-18T20:42:28.058Z,4.53
2018-09-18T20:50:07.350Z,4.70
2018-09-18T20:52:36.273Z,4.80
2018-09-18T20:55:05.484Z,4.80
2018-09-18T20:57:34.236Z,5.13
2018-09-18T21:00:03.339Z,5.00
2018-09-18T21:02:31.954Z,5.20
2018-09-18T21:05:00.804Z,5.30
2018-09-18T21:07:29.394Z,4.83
2018-09-18T21:09:58.155Z,4.87
2018-09-18T21:12:26.844Z,5.67
2018-09-18T21:14:55.622Z,4.70
2018-09-18T21:17:24.107Z,5.20
2018-09-18T21:19:52.760Z,4.50
2018-09-18T21:22:21.360Z,5.40
2018-09-18T21:24:50.961Z,5.60
2018-09-18T21:27:19.743Z,5.87
2018-09-18T21:29:48.486Z,6.13
2018-09-18T21:32:17.438Z,6.03
2018-09-18T21:34:46.121Z,6.00
2018-09-18T21:37:15.036Z,7.00
2018-09-18T21:39:43.730Z,6.50
2018-09-18T21:42:12.737Z,5.77
2018-09-18T21:44:41.515Z,4.93
2018-09-18T21:47:10.298Z,5.80
2018-09-18T21:49:39.075Z,4.93
2018-09-18T21:52:07.653Z,5.70
2018-09-18T21:54:36.250Z,5.50
2018-09-18T21:57:04.931Z,6.30
2018-09-18T21:59:33.771Z,5.87
2018-09-18T22:02:02.337Z,5.33
2018-09-18T22:04:31.112Z,6.47
2018-09-18T22:06:59.836Z,6.73
2018-09-18T22:09:28.583Z,6.37
2018-09-18T22:11:57.308Z,6.20
2018-09-18T22:14:25.958Z,6.08
2018-09-18T22:16:54.830Z,5.67
2018-09-18T22:19:23.516Z,6.70
2018-09-18T22:21:52.451Z,6.80
2018-09-18T22:24:20.976Z,6.27
2018-09-18T22:26:49.477Z,6.40
2018-09-18T22:29:17.978Z,6.73
2018-09-18T22:36:43.504Z,6.40
2018-09-18T22:39:12.593Z,6.73
2018-09-18T22:41:41.245Z,6.27
2018-09-18T22:44:09.776Z,6.75
2018-09-18T22:46:38.254Z,7.30
2018-09-18T22:49:06.805Z,7.43
2018-09-18T22:51:35.415Z,6.90
2018-09-18T22:54:03.926Z,6.83
2018-09-18T22:56:32.569Z,6.50
2018-09-18T22:59:01.169Z,6.53
2018-09-18T23:01:30.006Z,6.20
2018-09-18T23:03:58.444Z,6.63
2018-09-18T23:06:27.108Z,6.37
2018-09-18T23:08:55.827Z,6.70
2018-09-18T23:11:24.291Z,6.73
2018-09-18T23:13:52.870Z,6.77
2018-09-18T23:16:21.399Z,6.90
2018-09-18T23:18:50.290Z,7.40
2018-09-18T23:21:18.810Z,7.47
2018-09-18T23:23:47.435Z,7.23
2018-09-18T23:26:16.175Z,6.80
2018-09-18T23:28:44.948Z,7.00
2018-09-18T23:31:13.358Z,7.47
2018-09-18T23:33:42.089Z,6.50
2018-09-18T23:36:11.642Z,7.23
2018-09-18T23:38:40.655Z,6.87
2018-09-18T23:41:09.169Z,7.47
2018-09-18T23:43:37.925Z,7.20
2018-09-18T23:46:06.414Z,6.90
2018-09-18T23:48:35.090Z,7.30
2018-09-18T23:51:03.885Z,7.20
2018-09-18T23:53:32.684Z,7.47
2018-09-18T23:56:01.396Z,7.93
2018-09-18T23:58:30.039Z,7.30
